createdAt,value
2022-08-12T00:02:41.551Z,3.42
2022-08-12T00:05:23.744Z,3.42
2022-08-12T00:08:05.077Z,3.40
2022-08-12T00:10:47.853Z,3.42
2022-08-12T00:13:29.969Z,3.63
2022-08-12T00:16:12.611Z,3.50
2022-08-12T00:18:54.868Z,3.60
2022-08-12T00:21:38.672Z,3.30
2022-08-12T00:24:19.864Z,3.45
2022-08-12T00:27:02.871Z,3.30
2022-08-12T00:29:47.804Z,3.78
2022-08-12T00:32:35.890Z,3.45
2022-08-12T00:35:17.850Z,3.75
2022-08-12T00:37:59.896Z,3.60
2022-08-12T00:40:42.356Z,3.10
2022-08-12T00:43:12.188Z,3.72
2022-08-12T00:45:56.445Z,3.58
2022-08-12T00:48:20.691Z,3.67
2022-08-12T00:50:44.592Z,3.50
2022-08-12T00:53:10.852Z,3.60
2022-08-12T00:55:34.639Z,3.80
2022-08-12T00:57:58.571Z,3.90
2022-08-12T01:00:26.323Z,3.78
2022-08-12T01:03:12.449Z,3.80
2022-08-12T01:05:56.147Z,3.45
2022-08-12T01:08:37.087Z,3.85
2022-08-12T01:11:18.533Z,3.75
2022-08-12T01:13:48.508Z,3.28
2022-08-12T01:16:14.525Z,3.72
2022-08-12T01:18:41.724Z,4.00
2022-08-12T01:21:16.819Z,3.92
2022-08-12T01:24:29.532Z,3.50
2022-08-12T01:26:48.756Z,3.88
2022-08-12T01:29:17.924Z,4.07
2022-08-12T01:31:44.837Z,4.13
2022-08-12T01:34:35.907Z,3.60
2022-08-12T01:37:00.110Z,3.92
2022-08-12T01:39:29.050Z,4.13
2022-08-12T01:41:56.021Z,3.83
2022-08-12T01:44:21.546Z,3.97
2022-08-12T01:46:58.684Z,4.50
2022-08-12T01:49:45.108Z,3.55
2022-08-12T01:52:22.605Z,4.72
2022-08-12T01:54:47.183Z,3.90
2022-08-12T01:57:58.794Z,4.10
2022-08-12T02:00:14.041Z,4.00
2022-08-12T02:02:42.832Z,4.68
2022-08-12T02:05:35.610Z,4.15
2022-08-12T02:08:40.425Z,3.80
2022-08-12T02:11:18.560Z,4.40
2022-08-12T02:14:28.641Z,3.88
2022-08-12T02:17:55.819Z,3.83
2022-08-12T02:20:15.608Z,3.83
2022-08-12T02:22:44.242Z,4.32
2022-08-12T02:25:12.167Z,4.28
2022-08-12T02:27:40.783Z,4.47
2022-08-12T02:30:08.955Z,4.38
2022-08-12T02:32:40.701Z,3.88
2022-08-12T02:35:05.105Z,4.18
2022-08-12T02:37:30.944Z,4.03
2022-08-12T02:39:57.993Z,4.57
2022-08-12T02:42:24.008Z,4.00
2022-08-12T02:44:52.857Z,4.28
2022-08-12T02:47:59.038Z,4.00
2022-08-12T02:50:09.103Z,4.45
2022-08-12T02:52:34.688Z,3.70
2022-08-12T02:55:12.868Z,4.22
2022-08-12T02:57:53.464Z,3.80
2022-08-12T03:00:18.995Z,4.47
2022-08-12T03:02:47.860Z,4.30
2022-08-12T03:05:15.405Z,4.07
2022-08-12T03:07:59.839Z,3.95
2022-08-12T03:10:36.592Z,3.80
2022-08-12T03:13:04.055Z,4.00
2022-08-12T03:15:28.964Z,4.20
2022-08-12T03:18:25.536Z,4.43
2022-08-12T03:20:43.241Z,4.35
2022-08-12T03:23:09.031Z,4.53
2022-08-12T03:25:38.659Z,4.30
2022-08-12T03:28:03.343Z,4.13
2022-08-12T03:30:31.456Z,4.78
2022-08-12T03:32:59.201Z,4.30
2022-08-12T03:35:40.657Z,4.28
2022-08-12T03:38:09.627Z,4.13
2022-08-12T03:40:59.800Z,5.60
2022-08-12T03:43:47.559Z,4.93
2022-08-12T03:46:39.007Z,4.50
2022-08-12T03:49:22.152Z,6.22
2022-08-12T03:52:04.093Z,6.00
2022-08-12T03:54:45.352Z,11.43
2022-08-12T03:57:26.788Z,9.05
2022-08-12T04:00:07.686Z,14.45
2022-08-12T04:02:34.661Z,9.55
2022-08-12T04:04:59.987Z,9.38
2022-08-12T04:07:24.448Z,6.50
2022-08-12T04:09:48.681Z,5.88
2022-08-12T04:12:39.496Z,5.70
2022-08-12T04:15:04.023Z,5.35
2022-08-12T04:17:28.954Z,5.75
2022-08-12T04:19:53.493Z,4.82
2022-08-12T04:22:18.883Z,4.78
2022-08-12T04:24:50.378Z,4.82
2022-08-12T04:27:14.491Z,4.93
2022-08-12T04:30:30.487Z,4.75
2022-08-12T04:32:22.997Z,4.93
2022-08-12T04:34:47.080Z,5.35
2022-08-12T04:37:12.223Z,4.80
2022-08-12T04:39:39.509Z,4.88
2022-08-12T04:42:03.373Z,5.30
2022-08-12T04:44:27.503Z,5.15
2022-08-12T04:46:51.276Z,5.20
2022-08-12T04:49:15.012Z,4.53
2022-08-12T04:51:38.912Z,5.15
2022-08-12T04:54:03.636Z,4.85
2022-08-12T04:56:29.543Z,4.50
2022-08-12T04:59:00.574Z,4.70
2022-08-12T05:01:27.999Z,5.18
2022-08-12T05:03:53.276Z,4.63
2022-08-12T05:06:26.277Z,5.60
2022-08-12T05:08:52.305Z,4.60
2022-08-12T05:11:16.260Z,4.50
2022-08-12T05:13:42.745Z,4.70
2022-08-12T05:16:09.299Z,4.50
2022-08-12T05:18:33.884Z,4.57
2022-08-12T05:21:02.223Z,4.90
2022-08-12T05:23:25.979Z,4.57
2022-08-12T05:25:56.319Z,4.15
2022-08-12T05:28:20.413Z,4.80
2022-08-12T05:30:46.880Z,4.20
2022-08-12T05:33:11.801Z,4.40
2022-08-12T05:35:40.115Z,4.28
2022-08-12T05:38:17.804Z,4.60
2022-08-12T05:40:42.248Z,4.28
2022-08-12T05:43:06.555Z,4.40
2022-08-12T05:45:30.372Z,4.55
2022-08-12T05:47:55.588Z,4.57
2022-08-12T05:50:19.792Z,4.30
2022-08-12T05:52:44.139Z,4.55
2022-08-12T05:55:08.933Z,4.43
2022-08-12T05:57:35.504Z,4.70
2022-08-12T05:59:59.670Z,4.47
2022-08-12T06:02:23.440Z,4.28
2022-08-12T06:04:49.631Z,4.75
2022-08-12T06:08:00.725Z,3.92
2022-08-12T06:09:58.063Z,4.78
2022-08-12T06:12:23.479Z,4.05
2022-08-12T06:14:48.284Z,4.18
2022-08-12T06:17:12.320Z,3.90
2022-08-12T06:20:28.199Z,4.40
2022-08-12T06:22:21.522Z,4.13
2022-08-12T06:24:45.282Z,4.07
2022-08-12T06:27:09.392Z,3.70
2022-08-12T06:30:07.225Z,4.30
2022-08-12T06:32:18.357Z,4.20
2022-08-12T06:35:25.025Z,4.10
2022-08-12T06:37:28.000Z,4.30
2022-08-12T06:39:51.831Z,3.60
2022-08-12T06:42:33.659Z,3.60
2022-08-12T06:44:57.436Z,2.90
2022-08-12T06:47:22.240Z,3.20
2022-08-12T06:49:46.052Z,3.20
2022-08-12T06:52:09.732Z,2.90
2022-08-12T06:54:35.503Z,3.00
2022-08-12T06:57:04.249Z,3.78
2022-08-12T06:59:29.356Z,2.97
2022-08-12T07:01:53.703Z,2.70
2022-08-12T07:04:35.843Z,2.92
2022-08-12T07:07:01.167Z,2.70
2022-08-12T07:10:04.089Z,2.35
2022-08-12T07:12:19.862Z,2.75
2022-08-12T07:14:48.411Z,2.22
2022-08-12T07:17:13.141Z,2.33
2022-08-12T07:19:45.240Z,2.70
2022-08-12T07:22:10.937Z,2.40
2022-08-12T07:24:34.775Z,2.40
2022-08-12T07:26:58.586Z,2.30
2022-08-12T07:29:25.514Z,2.50
2022-08-12T07:32:09.447Z,2.53
2022-08-12T07:34:33.410Z,2.22
2022-08-12T07:36:57.191Z,2.13
2022-08-12T07:39:21.372Z,2.10
2022-08-12T07:41:45.257Z,1.90
2022-08-12T07:44:12.663Z,2.30
2022-08-12T07:46:40.769Z,1.98
2022-08-12T07:49:08.440Z,2.47
2022-08-12T07:51:33.108Z,2.00
2022-08-12T07:54:02.978Z,1.73
2022-08-12T07:56:28.390Z,2.05
2022-08-12T07:58:53.858Z,1.80
2022-08-12T08:01:22.887Z,2.30
2022-08-12T08:04:05.431Z,2.10
2022-08-12T08:06:31.330Z,1.95
2022-08-12T08:08:56.588Z,2.03
2022-08-12T08:11:37.744Z,1.88
2022-08-12T08:14:04.429Z,1.80
2022-08-12T08:16:28.179Z,2.20
2022-08-12T08:18:55.811Z,1.90
2022-08-12T08:21:22.063Z,1.73
2022-08-12T08:24:05.276Z,1.75
2022-08-12T08:26:29.264Z,2.00
2022-08-12T08:29:01.774Z,1.45
2022-08-12T08:31:28.056Z,1.70
2022-08-12T08:34:04.157Z,1.50
2022-08-12T08:36:40.322Z,1.40
2022-08-12T08:39:06.117Z,1.58
2022-08-12T08:42:16.578Z,1.75
2022-08-12T08:44:31.758Z,1.88
2022-08-12T08:46:55.808Z,1.40
2022-08-12T08:49:23.008Z,1.60
2022-08-12T08:51:47.123Z,1.73
2022-08-12T08:54:11.589Z,1.40
2022-08-12T08:56:42.720Z,1.42
2022-08-12T08:59:06.504Z,1.63
2022-08-12T09:01:37.570Z,1.65
2022-08-12T09:05:07.833Z,1.40
2022-08-12T09:06:53.627Z,1.67
2022-08-12T09:09:19.582Z,1.55
2022-08-12T09:12:10.651Z,1.50
2022-08-12T09:14:36.016Z,1.67
2022-08-12T09:16:59.847Z,1.55
2022-08-12T09:19:27.735Z,1.40
2022-08-12T09:21:54.890Z,1.80
2022-08-12T09:24:19.953Z,1.48
2022-08-12T09:26:46.387Z,1.48
2022-08-12T09:29:12.469Z,1.50
2022-08-12T09:32:03.970Z,1.50
2022-08-12T09:34:29.400Z,1.60
2022-08-12T09:37:02.422Z,1.30
2022-08-12T09:40:06.399Z,1.30
2022-08-12T09:42:39.128Z,1.50
2022-08-12T09:45:23.389Z,1.60
2022-08-12T09:47:57.066Z,1.70
2022-08-12T09:50:23.971Z,1.90
2022-08-12T09:53:05.836Z,1.73
2022-08-12T09:56:06.918Z,1.38
2022-08-12T09:58:57.654Z,1.30
2022-08-12T10:01:06.533Z,1.40
2022-08-12T10:04:03.534Z,1.40
2022-08-12T10:06:32.419Z,1.40
2022-08-12T10:09:01.393Z,1.48
2022-08-12T10:12:10.101Z,1.48
2022-08-12T10:14:34.214Z,1.40
2022-08-12T10:16:59.929Z,1.40
2022-08-12T10:19:36.304Z,1.40
2022-08-12T10:22:01.665Z,1.50
2022-08-12T10:24:26.825Z,1.42
2022-08-12T10:27:08.468Z,1.10
2022-08-12T10:30:37.671Z,1.33
2022-08-12T10:32:44.747Z,1.30
2022-08-12T10:35:09.790Z,1.27
2022-08-12T10:38:34.060Z,1.20
2022-08-12T10:40:28.621Z,1.10
2022-08-12T10:43:16.959Z,1.40
2022-08-12T10:45:42.629Z,1.38
2022-08-12T10:48:21.295Z,1.20
2022-08-12T10:50:58.410Z,1.40
2022-08-12T10:53:44.164Z,1.25
2022-08-12T10:56:11.900Z,1.40
2022-08-12T10:58:37.915Z,1.60
2022-08-12T11:01:50.501Z,1.30
2022-08-12T11:04:23.264Z,1.35
2022-08-12T11:07:08.081Z,1.55
2022-08-12T11:09:18.420Z,1.35
2022-08-12T11:12:57.257Z,1.25
2022-08-12T11:14:52.354Z,1.48
2022-08-12T11:17:42.828Z,1.10
2022-08-12T11:20:00.163Z,1.48
2022-08-12T11:22:26.141Z,1.27
2022-08-12T11:24:55.366Z,1.30
2022-08-12T11:27:21.409Z,1.20
2022-08-12T11:30:00.446Z,1.50
2022-08-12T11:32:29.977Z,1.50
2022-08-12T11:35:02.605Z,1.40
2022-08-12T11:37:58.430Z,1.50
2022-08-12T11:40:11.222Z,1.40
2022-08-12T11:42:39.733Z,1.30
2022-08-12T11:45:12.195Z,1.38
2022-08-12T11:47:40.806Z,1.40
2022-08-12T11:50:05.080Z,1.50
2022-08-12T11:53:02.380Z,1.27
2022-08-12T11:55:15.019Z,1.38
2022-08-12T11:58:51.133Z,1.40
2022-08-12T12:03:19.207Z,1.40
2022-08-12T12:05:46.859Z,1.35
2022-08-12T12:08:38.649Z,1.40
2022-08-12T12:10:56.147Z,1.60
2022-08-12T12:13:23.245Z,1.50
2022-08-12T12:16:07.131Z,1.20
2022-08-12T12:18:34.968Z,1.50
2022-08-12T12:21:01.555Z,1.52
2022-08-12T12:23:29.552Z,1.38
2022-08-12T12:25:59.458Z,1.38
2022-08-12T12:28:37.829Z,1.67
2022-08-12T12:31:04.389Z,1.40
2022-08-12T12:33:57.133Z,1.90
2022-08-12T12:36:24.026Z,2.45
2022-08-12T12:38:53.133Z,1.40
2022-08-12T12:41:18.625Z,1.42
2022-08-12T12:43:56.341Z,1.85
2022-08-12T12:46:27.175Z,1.70
2022-08-12T12:48:51.170Z,1.30
2022-08-12T12:51:22.124Z,1.60
2022-08-12T12:54:07.425Z,1.40
2022-08-12T12:56:34.611Z,1.50
2022-08-12T12:59:00.891Z,1.50
2022-08-12T13:01:31.110Z,1.30
2022-08-12T13:04:01.894Z,1.40
2022-08-12T13:06:30.237Z,1.40
2022-08-12T13:08:54.927Z,1.30
2022-08-12T13:11:21.254Z,1.40
2022-08-12T13:14:10.174Z,1.48
2022-08-12T13:16:43.838Z,1.50
2022-08-12T13:19:07.947Z,1.40
2022-08-12T13:21:36.642Z,1.55
2022-08-12T13:24:09.978Z,2.47
2022-08-12T13:26:35.171Z,2.80
2022-08-12T13:29:01.247Z,2.60
2022-08-12T13:31:27.152Z,1.70
2022-08-12T13:34:32.053Z,1.45
2022-08-12T13:36:37.319Z,1.50
2022-08-12T13:39:02.274Z,1.48
2022-08-12T13:41:35.851Z,1.50
2022-08-12T13:43:59.811Z,1.60
2022-08-12T13:46:25.503Z,1.27
2022-08-12T13:48:49.286Z,1.50
2022-08-12T13:51:14.483Z,1.25
2022-08-12T13:53:58.982Z,1.30
2022-08-12T13:56:24.855Z,1.30
2022-08-12T13:58:54.391Z,1.38
2022-08-12T14:01:20.599Z,1.58
2022-08-12T14:03:50.992Z,1.40
2022-08-12T14:06:18.991Z,1.38
2022-08-12T14:08:42.883Z,1.52
2022-08-12T14:11:06.932Z,1.38
2022-08-12T14:14:03.470Z,1.70
2022-08-12T14:16:47.187Z,1.40
2022-08-12T14:19:18.467Z,1.40
2022-08-12T14:21:59.218Z,1.50
2022-08-12T14:24:27.020Z,1.40
2022-08-12T14:26:51.047Z,1.60
2022-08-12T14:29:21.726Z,1.60
2022-08-12T14:31:59.409Z,1.70
2022-08-12T14:34:28.270Z,1.80
2022-08-12T14:36:53.960Z,1.60
2022-08-12T14:39:18.091Z,1.50
2022-08-12T14:41:48.168Z,1.38
2022-08-12T14:44:59.458Z,1.40
2022-08-12T14:46:57.079Z,1.45
2022-08-12T14:50:33.763Z,1.40
2022-08-12T14:53:41.273Z,1.60
2022-08-12T14:57:57.212Z,1.80
2022-08-12T15:00:53.457Z,1.52
2022-08-12T15:03:18.047Z,1.70
2022-08-12T15:06:05.542Z,1.60
2022-08-12T15:08:33.487Z,1.63
2022-08-12T15:10:59.883Z,1.40
2022-08-12T15:13:26.356Z,1.80
2022-08-12T15:15:52.744Z,1.50
2022-08-12T15:18:21.238Z,1.38
2022-08-12T15:20:46.011Z,1.50
2022-08-12T15:23:18.118Z,1.45
2022-08-12T15:25:47.844Z,1.80
2022-08-12T15:28:22.259Z,1.60
2022-08-12T15:30:46.235Z,1.50
2022-08-12T15:33:13.006Z,1.65
2022-08-12T15:35:52.010Z,1.40
2022-08-12T15:38:20.596Z,1.55
2022-08-12T15:40:51.327Z,1.60
2022-08-12T15:44:16.119Z,1.70
2022-08-12T15:46:00.375Z,1.60
2022-08-12T15:48:25.486Z,1.60
2022-08-12T15:50:55.564Z,1.80
2022-08-12T15:53:40.804Z,1.50
2022-08-12T15:56:12.703Z,1.70
2022-08-12T15:58:38.308Z,1.80
2022-08-12T16:01:04.300Z,1.90
2022-08-12T16:03:46.102Z,1.60
2022-08-12T16:06:36.346Z,1.75
2022-08-12T16:09:02.184Z,1.70
2022-08-12T16:11:27.755Z,1.60
2022-08-12T16:14:04.896Z,1.60
2022-08-12T16:16:35.503Z,1.88
2022-08-12T16:19:09.089Z,1.65
2022-08-12T16:21:50.305Z,1.75
2022-08-12T16:24:18.639Z,1.92
2022-08-12T16:26:45.219Z,1.73
2022-08-12T16:29:18.383Z,1.88
2022-08-12T16:31:42.138Z,1.77
2022-08-12T16:34:06.411Z,1.67
2022-08-12T16:36:34.733Z,1.90
2022-08-12T16:39:01.497Z,1.80
2022-08-12T16:41:28.259Z,2.08
2022-08-12T16:43:59.922Z,1.80
2022-08-12T16:46:32.166Z,1.90
2022-08-12T16:48:56.990Z,2.20
2022-08-12T16:51:20.767Z,2.00
2022-08-12T16:53:45.689Z,1.90
2022-08-12T16:56:12.356Z,2.22
2022-08-12T16:58:37.063Z,1.92
2022-08-12T17:01:02.504Z,1.80
2022-08-12T17:03:28.721Z,1.98
2022-08-12T17:05:54.968Z,2.00
2022-08-12T17:08:21.592Z,2.40
2022-08-12T17:10:54.144Z,2.10
2022-08-12T17:13:19.523Z,2.00
2022-08-12T17:15:56.769Z,2.15
2022-08-12T17:18:42.173Z,2.13
2022-08-12T17:21:10.109Z,1.80
2022-08-12T17:23:48.644Z,1.90
2022-08-12T17:26:19.488Z,2.00
2022-08-12T17:28:52.378Z,2.30
2022-08-12T17:31:18.328Z,1.83
2022-08-12T17:34:05.822Z,1.92
2022-08-12T17:36:40.331Z,2.25
2022-08-12T17:39:09.366Z,2.00
2022-08-12T17:41:56.474Z,1.90
2022-08-12T17:44:20.952Z,2.10
2022-08-12T17:46:45.807Z,2.10
2022-08-12T17:50:02.023Z,1.98
2022-08-12T17:52:07.566Z,2.13
2022-08-12T17:54:37.220Z,2.17
2022-08-12T17:57:01.277Z,2.00
2022-08-12T17:59:48.005Z,2.30
2022-08-12T18:02:13.601Z,1.90
2022-08-12T18:05:09.787Z,2.10
2022-08-12T18:07:27.940Z,2.10
2022-08-12T18:09:53.288Z,2.10
2022-08-12T18:12:35.634Z,2.03
2022-08-12T18:15:01.889Z,2.13
2022-08-12T18:17:27.416Z,2.20
2022-08-12T18:20:06.665Z,2.20
2022-08-12T18:22:33.467Z,2.20
2022-08-12T18:25:00.905Z,2.10
2022-08-12T18:27:44.472Z,2.25
2022-08-12T18:30:16.442Z,2.67
2022-08-12T18:32:58.465Z,2.30
2022-08-12T18:35:29.917Z,2.58
2022-08-12T18:38:09.240Z,2.65
2022-08-12T18:41:06.125Z,2.60
2022-08-12T18:43:30.658Z,3.08
2022-08-12T18:46:10.939Z,2.70
2022-08-12T18:48:39.793Z,2.58
2022-08-12T18:51:09.104Z,3.05
2022-08-12T18:54:07.180Z,2.80
2022-08-12T18:56:33.143Z,3.10
2022-08-12T18:59:01.400Z,3.08
2022-08-12T19:02:18.908Z,2.92
2022-08-12T19:04:12.312Z,3.35
2022-08-12T19:06:38.215Z,3.53
2022-08-12T19:09:02.216Z,3.67
2022-08-12T19:11:43.893Z,3.22
2022-08-12T19:14:28.184Z,3.47
2022-08-12T19:16:52.512Z,4.00
2022-08-12T19:19:17.359Z,3.30
2022-08-12T19:21:56.720Z,3.08
2022-08-12T19:24:40.048Z,2.95
2022-08-12T19:27:06.703Z,3.22
2022-08-12T19:29:39.552Z,3.20
2022-08-12T19:32:11.507Z,3.13
2022-08-12T19:38:02.584Z,2.83
2022-08-12T19:40:32.927Z,2.97
2022-08-12T19:43:01.527Z,3.40
2022-08-12T19:45:43.816Z,3.00
2022-08-12T19:48:17.240Z,3.33
2022-08-12T19:50:41.487Z,3.20
2022-08-12T19:53:08.198Z,2.95
2022-08-12T19:55:39.100Z,3.17
2022-08-12T19:58:04.793Z,3.50
2022-08-12T20:00:28.892Z,3.85
2022-08-12T20:03:00.704Z,3.83
2022-08-12T20:06:04.636Z,3.92
2022-08-12T20:08:13.194Z,4.28
2022-08-12T20:10:47.312Z,4.07
2022-08-12T20:13:19.283Z,4.00
2022-08-12T20:15:51.145Z,4.40
2022-08-12T20:18:53.403Z,4.18
2022-08-12T20:21:14.841Z,3.88
2022-08-12T20:24:00.521Z,4.15
2022-08-12T20:26:24.896Z,4.53
2022-08-12T20:28:50.781Z,4.13
2022-08-12T20:31:14.576Z,4.32
2022-08-12T20:33:50.755Z,4.35
2022-08-12T20:36:40.949Z,4.55
2022-08-12T20:39:51.158Z,6.03
2022-08-12T20:41:58.584Z,4.40
2022-08-12T20:44:22.374Z,5.25
2022-08-12T20:46:46.654Z,5.47
2022-08-12T20:49:17.395Z,4.97
2022-08-12T20:51:54.963Z,5.15
2022-08-12T20:54:21.503Z,3.75
2022-08-12T20:56:45.463Z,3.83
2022-08-12T20:59:14.695Z,4.43
2022-08-12T21:01:47.798Z,4.30
2022-08-12T21:04:30.776Z,4.47
2022-08-12T21:07:08.457Z,4.30
2022-08-12T21:09:40.631Z,4.70
2022-08-12T21:12:31.354Z,4.03
2022-08-12T21:14:55.499Z,4.03
2022-08-12T21:17:22.863Z,3.67
2022-08-12T21:20:11.422Z,4.13
2022-08-12T21:22:40.163Z,4.22
2022-08-12T21:25:16.866Z,4.22
2022-08-12T21:27:58.803Z,4.07
2022-08-12T21:30:27.367Z,3.80
2022-08-12T21:32:58.032Z,3.63
2022-08-12T21:35:23.397Z,3.63
2022-08-12T21:37:53.042Z,4.10
2022-08-12T21:40:18.788Z,3.42
2022-08-12T21:42:43.079Z,3.67
2022-08-12T21:45:48.335Z,3.60
2022-08-12T21:47:57.700Z,3.72
2022-08-12T21:50:21.607Z,3.95
2022-08-12T21:52:50.535Z,3.50
2022-08-12T21:55:18.515Z,3.60
2022-08-12T21:57:51.230Z,3.50
2022-08-12T22:00:19.071Z,4.03
2022-08-12T22:02:59.971Z,3.08
2022-08-12T22:05:41.423Z,3.75
2022-08-12T22:08:08.811Z,3.58
2022-08-12T22:10:32.524Z,3.50
2022-08-12T22:12:58.550Z,3.70
2022-08-12T22:15:25.091Z,3.30
2022-08-12T22:17:55.325Z,3.35
2022-08-12T22:20:21.734Z,3.63
2022-08-12T22:22:53.831Z,3.58
2022-08-12T22:25:21.847Z,3.42
2022-08-12T22:28:02.836Z,3.60
2022-08-12T22:30:45.791Z,3.42
2022-08-12T22:33:15.747Z,3.50
2022-08-12T22:35:56.000Z,3.28
2022-08-12T22:38:26.527Z,3.33
2022-08-12T22:40:53.201Z,3.40
2022-08-12T22:43:35.208Z,3.53
2022-08-12T22:46:23.404Z,3.25
2022-08-12T22:48:54.202Z,3.53
2022-08-12T22:51:19.383Z,3.40
2022-08-12T22:53:44.200Z,3.40
2022-08-12T22:56:14.339Z,3.55
2022-08-12T22:58:40.512Z,3.10
2022-08-12T23:01:06.880Z,3.58
2022-08-12T23:03:47.823Z,3.17
2022-08-12T23:06:14.204Z,2.92
2022-08-12T23:08:38.570Z,3.08
2022-08-12T23:11:06.051Z,3.50
2022-08-12T23:13:55.483Z,2.97
2022-08-12T23:16:29.079Z,3.42
2022-08-12T23:18:55.583Z,3.22
2022-08-12T23:21:23.683Z,3.53
2022-08-12T23:24:09.425Z,3.40
2022-08-12T23:26:50.380Z,3.30
2022-08-12T23:29:29.652Z,3.13
2022-08-12T23:32:04.167Z,3.10
2022-08-12T23:34:33.315Z,3.42
2022-08-12T23:36:59.587Z,3.10
2022-08-12T23:40:13.801Z,3.40
2022-08-12T23:42:17.442Z,3.45
2022-08-12T23:44:42.672Z,3.10
2022-08-12T23:47:10.033Z,3.25
2022-08-12T23:49:57.635Z,3.60
2022-08-12T23:52:19.368Z,3.30
2022-08-12T23:54:46.819Z,3.20
2022-08-12T23:57:22.283Z,3.97
2022-08-12T23:59:55.552Z,3.28
